createdAt,value
2023-06-18T00:02:41.133Z,17.21
2023-06-18T00:12:42.583Z,17.20
2023-06-18T00:22:44.045Z,16.79
2023-06-18T00:32:45.458Z,16.79
2023-06-18T00:52:48.183Z,16.66
2023-06-18T01:02:49.658Z,16.35
2023-06-18T01:12:51.135Z,16.56
2023-06-18T01:22:52.398Z,16.49
2023-06-18T01:32:53.727Z,16.53
2023-06-18T01:42:55.213Z,16.57
2023-06-18T01:52:56.375Z,15.91
2023-06-18T02:02:57.710Z,15.71
2023-06-18T02:12:58.963Z,15.65
2023-06-18T02:23:00.121Z,15.51
2023-06-18T02:33:01.340Z,15.14
2023-06-18T02:43:02.363Z,14.77
2023-06-18T02:53:03.481Z,14.84
2023-06-18T03:03:04.648Z,15.06
2023-06-18T03:13:05.814Z,15.05
2023-06-18T03:23:06.847Z,15.01
2023-06-18T03:33:07.967Z,15.01
2023-06-18T03:43:08.995Z,14.85
2023-06-18T03:53:10.118Z,15.20
2023-06-18T04:03:11.326Z,15.38
2023-06-18T04:13:12.465Z,15.60
2023-06-18T04:23:13.685Z,16.09
2023-06-18T04:33:14.966Z,16.38
2023-06-18T04:43:16.224Z,17.00
2023-06-18T04:53:17.510Z,18.82
2023-06-18T05:03:19.247Z,22.67
2023-06-18T05:13:21.329Z,24.92
2023-06-18T05:23:24.029Z,26.30
2023-06-18T05:33:26.914Z,28.10
2023-06-18T05:43:30.161Z,29.23
2023-06-18T05:53:33.547Z,30.66
2023-06-18T06:03:37.110Z,30.92
2023-06-18T06:13:42.053Z,31.88
2023-06-18T06:52:27.982Z,29.65
2023-06-18T07:02:31.723Z,32.48
2023-06-18T07:12:35.295Z,34.63
2023-06-18T08:42:11.302Z,28.91
2023-06-18T08:52:13.683Z,29.32
2023-06-18T09:02:16.095Z,27.85
2023-06-18T09:12:18.402Z,27.96
2023-06-18T09:22:20.780Z,27.83
2023-06-18T09:32:23.175Z,27.53
2023-06-18T09:42:25.583Z,27.80
2023-06-18T09:52:27.664Z,27.24
2023-06-18T10:02:29.927Z,26.42
2023-06-18T10:12:32.069Z,26.39
2023-06-18T10:22:34.298Z,26.21
2023-06-18T10:32:36.499Z,26.39
2023-06-18T10:42:38.687Z,26.40
2023-06-18T10:52:40.865Z,26.27
2023-06-18T11:02:43.107Z,26.45
2023-06-18T11:12:45.134Z,26.45
2023-06-18T11:22:47.360Z,26.96
2023-06-18T11:32:49.616Z,26.69
2023-06-18T11:42:51.657Z,27.00
2023-06-18T11:52:53.844Z,27.44
2023-06-18T12:02:56.166Z,26.38
2023-06-18T12:12:58.252Z,26.51
2023-06-18T12:33:02.772Z,27.36
2023-06-18T12:43:06.141Z,27.15
2023-06-18T12:53:07.278Z,26.87
2023-06-18T13:03:09.618Z,27.12
2023-06-18T13:13:11.809Z,27.09
2023-06-18T13:23:14.031Z,27.08
2023-06-18T13:33:16.221Z,26.61
2023-06-18T13:43:18.419Z,27.03
2023-06-18T13:53:20.646Z,26.75
2023-06-18T14:03:23.003Z,26.83
2023-06-18T14:13:25.024Z,26.44
2023-06-18T14:23:27.249Z,26.54
2023-06-18T14:33:29.383Z,26.60
2023-06-18T14:43:31.612Z,26.79
2023-06-18T14:53:33.789Z,26.80
2023-06-18T15:03:36.076Z,26.54
2023-06-18T15:13:38.045Z,26.21
2023-06-18T15:23:40.183Z,26.16
2023-06-18T15:33:42.396Z,26.59
2023-06-18T15:43:45.789Z,26.60
2023-06-18T15:53:46.662Z,26.20
2023-06-18T16:03:48.773Z,26.10
2023-06-18T16:13:50.947Z,25.95
2023-06-18T16:23:53.055Z,26.03
2023-06-18T16:33:55.095Z,26.01
2023-06-18T16:43:57.170Z,25.86
2023-06-18T16:53:59.249Z,25.85
2023-06-18T17:14:03.332Z,25.64
2023-06-18T17:24:05.479Z,25.55
2023-06-18T17:34:07.412Z,25.33
2023-06-18T17:44:09.502Z,25.24
2023-06-18T17:54:11.598Z,25.08
2023-06-18T18:04:13.793Z,24.97
2023-06-18T18:14:16.013Z,24.65
2023-06-18T18:24:17.847Z,24.40
2023-06-18T18:44:21.992Z,23.82
2023-06-18T18:54:23.665Z,23.28
2023-06-18T19:04:25.546Z,23.18
2023-06-18T19:14:27.451Z,22.96
2023-06-18T19:24:29.589Z,22.65
2023-06-18T19:34:31.349Z,22.55
2023-06-18T19:44:34.175Z,22.00
2023-06-18T19:54:34.809Z,22.06
2023-06-18T20:04:36.384Z,21.89
2023-06-18T20:14:38.056Z,21.59
2023-06-18T20:24:39.850Z,21.48
2023-06-18T20:34:41.429Z,21.43
2023-06-18T20:44:43.094Z,20.92
2023-06-18T20:54:44.698Z,20.26
2023-06-18T21:04:46.151Z,20.12
2023-06-18T21:14:47.635Z,20.35
2023-06-18T21:24:49.202Z,19.99
2023-06-18T21:34:50.830Z,20.06
2023-06-18T21:44:52.288Z,20.03
2023-06-18T21:54:55.277Z,19.35
2023-06-18T22:04:55.259Z,19.52
2023-06-18T22:14:56.678Z,19.47
2023-06-18T22:24:58.176Z,19.20
2023-06-18T22:34:59.673Z,19.13
2023-06-18T22:45:01.139Z,19.18
2023-06-18T22:55:02.528Z,18.87
2023-06-18T23:05:03.969Z,18.46
2023-06-18T23:15:05.486Z,18.38
2023-06-18T23:25:06.783Z,18.33
2023-06-18T23:35:08.210Z,18.23
2023-06-18T23:45:09.639Z,18.17
2023-06-18T23:55:11.014Z,18.21
